createdAt,value
2018-11-12T00:00:02.091Z,98721.89
2018-11-12T00:02:32.743Z,98722.95
2018-11-12T00:05:03.340Z,98726.45
2018-11-12T00:07:35.316Z,98728.58
2018-11-12T00:10:06.329Z,98723.64
2018-11-12T00:12:36.968Z,98716.50
2018-11-12T00:15:08.761Z,98724.88
2018-11-12T00:17:39.442Z,98725.78
2018-11-12T00:20:11.846Z,98732.11
2018-11-12T00:22:42.685Z,98729.75
2018-11-12T00:25:13.248Z,98728.91
2018-11-12T00:27:44.360Z,98729.58
2018-11-12T00:30:17.580Z,98732.58
2018-11-12T00:32:48.806Z,98725.95
2018-11-12T00:35:19.442Z,98729.23
2018-11-12T00:37:49.964Z,98728.48
2018-11-12T00:40:20.528Z,98722.76
2018-11-12T00:42:51.129Z,98723.60
2018-11-12T00:45:21.804Z,98724.05
2018-11-12T00:47:52.620Z,98725.70
2018-11-12T00:50:23.128Z,98724.95
2018-11-12T00:52:53.624Z,98723.20
2018-11-12T00:55:24.235Z,98726.03
2018-11-12T00:57:54.778Z,98726.25
2018-11-12T01:00:25.384Z,98725.70
2018-11-12T01:02:55.929Z,98727.84
2018-11-12T01:05:26.582Z,98730.14
2018-11-12T01:07:57.125Z,98728.69
2018-11-12T01:10:27.631Z,98722.67
2018-11-12T01:12:58.139Z,98724.36
2018-11-12T01:15:28.582Z,98727.40
2018-11-12T01:17:59.175Z,98716.97
2018-11-12T01:20:29.782Z,98718.12
2018-11-12T01:23:00.471Z,98722.14
2018-11-12T01:25:31.146Z,98717.65
2018-11-12T01:28:01.920Z,98723.91
2018-11-12T01:30:32.493Z,98724.27
2018-11-12T01:33:03.033Z,98726.02
2018-11-12T01:35:33.539Z,98732.81
2018-11-12T01:38:04.096Z,98730.84
2018-11-12T01:40:34.597Z,98732.89
2018-11-12T01:43:05.228Z,98729.02
2018-11-12T01:45:35.741Z,98733.73
2018-11-12T01:48:06.624Z,98737.98
2018-11-12T01:50:37.143Z,98732.98
2018-11-12T01:53:07.726Z,98737.68
2018-11-12T01:55:38.351Z,98737.77
2018-11-12T01:58:08.896Z,98738.30
2018-11-12T02:00:39.433Z,98738.30
2018-11-12T02:03:10.042Z,98734.87
2018-11-12T02:05:40.660Z,98731.16
2018-11-12T02:08:11.356Z,98730.98
2018-11-12T02:10:41.960Z,98731.61
2018-11-12T02:13:12.519Z,98734.88
2018-11-12T02:15:43.158Z,98731.75
2018-11-12T02:18:13.759Z,98734.52
2018-11-12T02:20:44.305Z,98742.64
2018-11-12T02:23:14.815Z,98741.44
2018-11-12T02:25:45.489Z,98742.20
2018-11-12T02:28:17.680Z,98740.14
2018-11-12T02:30:49.326Z,98740.98
2018-11-12T02:33:19.897Z,98745.31
2018-11-12T02:35:50.470Z,98747.91
2018-11-12T02:38:21.677Z,98750.40
2018-11-12T02:40:52.169Z,98755.56
2018-11-12T02:43:22.618Z,98759.31
2018-11-12T02:45:53.178Z,98759.14
2018-11-12T02:48:23.795Z,98764.84
2018-11-12T02:50:54.311Z,98764.09
2018-11-12T02:53:24.839Z,98769.66
2018-11-12T02:55:55.323Z,98764.84
2018-11-12T02:58:25.809Z,98769.97
2018-11-12T03:00:56.302Z,98771.93
2018-11-12T03:03:26.804Z,98774.44
2018-11-12T03:05:57.731Z,98776.13
2018-11-12T03:08:28.293Z,98771.84
2018-11-12T03:10:58.949Z,98774.92
2018-11-12T03:13:29.460Z,98776.49
2018-11-12T03:15:59.967Z,98776.05
2018-11-12T03:18:30.585Z,98766.76
2018-11-12T03:21:01.156Z,98772.24
2018-11-12T03:23:31.782Z,98775.06
2018-11-12T03:26:02.426Z,98774.22
2018-11-12T03:28:33.209Z,98771.63
2018-11-12T03:31:03.680Z,98773.63
2018-11-12T03:33:34.304Z,98771.19
2018-11-12T03:36:04.854Z,98770.52
2018-11-12T03:38:35.445Z,98769.67
2018-11-12T03:41:06.862Z,98776.50
2018-11-12T03:43:37.425Z,98774.77
2018-11-12T03:46:07.995Z,98776.50
2018-11-12T03:48:38.559Z,98784.89
2018-11-12T03:51:09.094Z,98780.56
2018-11-12T03:53:39.674Z,98783.47
2018-11-12T03:56:10.273Z,98784.98
2018-11-12T03:58:40.830Z,98786.59
2018-11-12T04:01:11.360Z,98783.91
2018-11-12T04:03:42.060Z,98786.87
2018-11-12T04:06:12.706Z,98783.52
2018-11-12T04:08:43.410Z,98788.69
2018-11-12T04:11:14.041Z,98797.94
2018-11-12T04:13:44.638Z,98802.63
2018-11-12T04:16:15.267Z,98797.45
2018-11-12T04:18:45.816Z,98805.92
2018-11-12T04:21:16.391Z,98810.57
2018-11-12T04:23:46.925Z,98810.17
2018-11-12T04:26:17.476Z,98811.41
2018-11-12T04:28:48.240Z,98810.13
2018-11-12T04:31:18.884Z,98818.12
2018-11-12T04:33:49.470Z,98818.26
2018-11-12T04:36:20.009Z,98816.73
2018-11-12T04:38:50.549Z,98815.22
2018-11-12T04:41:21.037Z,98828.09
2018-11-12T04:43:51.625Z,98833.27
2018-11-12T04:46:22.245Z,98840.13
2018-11-12T04:48:53.051Z,98840.98
2018-11-12T04:51:23.579Z,98839.52
2018-11-12T04:53:54.163Z,98847.28
2018-11-12T04:56:24.757Z,98831.52
2018-11-12T04:58:55.318Z,98851.40
2018-11-12T05:01:25.952Z,98852.68
2018-11-12T05:03:56.498Z,98854.16
2018-11-12T05:06:27.056Z,98855.73
2018-11-12T05:08:57.939Z,98854.75
2018-11-12T05:11:28.470Z,98859.39
2018-11-12T05:13:59.004Z,98860.02
2018-11-12T05:16:29.634Z,98859.48
2018-11-12T05:19:00.260Z,98850.81
2018-11-12T05:21:30.904Z,98856.14
2018-11-12T05:24:02.629Z,98859.09
2018-11-12T05:26:33.119Z,98864.62
2018-11-12T05:29:04.025Z,98870.34
2018-11-12T05:31:34.622Z,98875.56
2018-11-12T05:34:05.349Z,98879.45
2018-11-12T05:36:35.885Z,98877.31
2018-11-12T05:39:10.111Z,98880.33
2018-11-12T05:41:40.730Z,98884.12
2018-11-12T05:44:11.299Z,98887.17
2018-11-12T05:46:41.859Z,98885.83
2018-11-12T05:49:13.144Z,98884.58
2018-11-12T05:51:43.830Z,98879.54
2018-11-12T05:54:14.399Z,98884.81
2018-11-12T05:56:45.025Z,98887.34
2018-11-12T05:59:15.563Z,98889.50
2018-11-12T06:01:46.135Z,98885.84
2018-11-12T06:04:16.915Z,98893.92
2018-11-12T06:06:47.524Z,98898.25
2018-11-12T06:09:18.269Z,98903.64
2018-11-12T06:11:48.803Z,98906.02
2018-11-12T06:14:19.390Z,98905.30
2018-11-12T06:16:49.969Z,98912.63
2018-11-12T06:19:20.772Z,98907.14
2018-11-12T06:21:51.334Z,98907.06
2018-11-12T06:24:21.960Z,98914.69
2018-11-12T06:26:52.477Z,98920.10
2018-11-12T06:29:23.246Z,98926.05
2018-11-12T06:31:53.822Z,98914.16
2018-11-12T06:34:24.348Z,98928.18
2018-11-12T06:36:54.987Z,98926.81
2018-11-12T06:39:25.542Z,98929.27
2018-11-12T06:41:56.138Z,98932.70
2018-11-12T06:44:26.716Z,98929.94
2018-11-12T06:46:57.370Z,98930.91
2018-11-12T06:49:28.162Z,98928.41
2018-11-12T06:51:58.773Z,98939.09
2018-11-12T06:54:29.408Z,98928.05
2018-11-12T06:56:59.976Z,98938.64
2018-11-12T06:59:30.549Z,98937.62
2018-11-12T07:02:01.321Z,98940.39
2018-11-12T07:04:31.991Z,98939.94
2018-11-12T07:07:02.653Z,98935.66
2018-11-12T07:09:33.435Z,98934.98
2018-11-12T07:12:03.997Z,98943.35
2018-11-12T07:14:49.364Z,98943.66
2018-11-12T07:17:34.831Z,98950.84
2018-11-12T07:20:22.146Z,98944.50
2018-11-12T07:22:53.095Z,98947.99
2018-11-12T07:25:27.155Z,98951.75
2018-11-12T07:27:57.635Z,98949.23
2018-11-12T07:30:29.082Z,98954.69
2018-11-12T07:33:00.262Z,98953.48
2018-11-12T07:35:30.709Z,98953.12
2018-11-12T07:38:01.246Z,98961.34
2018-11-12T07:40:31.726Z,98960.95
2018-11-12T07:43:02.356Z,98960.95
2018-11-12T07:45:32.874Z,98970.02
2018-11-12T07:48:03.478Z,98970.70
2018-11-12T07:50:33.988Z,98968.44
2018-11-12T07:53:04.550Z,98977.95
2018-11-12T07:55:35.119Z,98979.08
2018-11-12T07:58:05.819Z,98980.55
2018-11-12T08:00:36.347Z,98987.41
2018-11-12T08:03:08.497Z,98987.56
2018-11-12T08:05:39.434Z,98990.39
2018-11-12T08:08:10.489Z,99000.54
2018-11-12T08:10:40.944Z,98996.70
2018-11-12T08:13:11.504Z,98996.92
2018-11-12T08:15:42.043Z,98992.22
2018-11-12T08:18:12.608Z,98987.84
2018-11-12T08:20:43.295Z,98994.71
2018-11-12T08:23:13.817Z,98989.22
2018-11-12T08:25:44.420Z,98986.62
2018-11-12T08:28:14.987Z,98994.92
2018-11-12T08:30:46.737Z,98983.34
2018-11-12T08:33:17.227Z,98982.34
2018-11-12T08:35:48.580Z,98990.77
2018-11-12T08:38:19.149Z,98987.77
2018-11-12T08:40:49.757Z,98997.03
2018-11-12T08:43:20.302Z,98993.80
2018-11-12T08:45:50.832Z,98995.44
2018-11-12T08:48:21.885Z,98991.27
2018-11-12T08:50:52.569Z,98996.31
2018-11-12T08:53:23.129Z,98994.95
2018-11-12T08:55:54.380Z,98996.00
2018-11-12T08:58:25.258Z,98992.66
2018-11-12T09:00:55.973Z,98996.03
2018-11-12T09:03:27.137Z,98993.19
2018-11-12T09:05:57.683Z,98991.64
2018-11-12T09:08:28.177Z,98985.98
2018-11-12T09:10:59.023Z,98981.89
2018-11-12T09:13:29.621Z,98983.34
2018-11-12T09:16:00.161Z,98982.81
2018-11-12T09:18:30.752Z,98990.04
2018-11-12T09:21:01.349Z,98986.68
2018-11-12T09:23:31.826Z,98984.72
2018-11-12T09:26:02.383Z,98985.30
2018-11-12T09:28:32.950Z,98985.64
2018-11-12T09:31:05.017Z,98993.73
2018-11-12T09:33:34.382Z,98995.39
2018-11-12T09:36:05.054Z,98993.11
2018-11-12T09:38:35.764Z,98987.99
2018-11-12T09:41:06.535Z,98987.08
2018-11-12T09:43:37.033Z,98982.84
2018-11-12T09:46:08.113Z,98986.81
2018-11-12T09:48:38.622Z,98987.50
2018-11-12T09:51:09.227Z,98981.09
2018-11-12T09:53:39.851Z,98987.30
2018-11-12T09:56:10.489Z,98987.30
2018-11-12T09:58:41.036Z,98984.16
2018-11-12T10:01:11.916Z,98982.81
2018-11-12T10:03:43.537Z,98985.81
2018-11-12T10:06:13.448Z,98980.77
2018-11-12T10:08:44.700Z,98971.18
2018-11-12T10:11:16.164Z,98970.47
2018-11-12T10:13:47.196Z,98975.44
2018-11-12T10:16:17.919Z,98976.48
2018-11-12T10:18:46.334Z,98972.94
2018-11-12T10:21:16.784Z,98969.22
2018-11-12T10:23:47.286Z,98975.16
2018-11-12T10:26:17.834Z,98976.11
2018-11-12T10:28:48.309Z,98974.95
2018-11-12T10:36:20.358Z,98969.24
2018-11-12T10:38:50.920Z,98965.80
2018-11-12T10:41:21.480Z,98968.48
2018-11-12T10:43:52.088Z,98960.59
2018-11-12T10:46:22.612Z,98956.86
2018-11-12T10:48:53.123Z,98959.39
2018-11-12T10:51:23.836Z,98956.78
2018-11-12T10:53:54.707Z,98956.78
2018-11-12T10:56:25.124Z,98955.85
2018-11-12T10:58:55.767Z,98954.91
2018-11-12T11:01:31.551Z,98960.23
2018-11-12T11:04:06.924Z,98959.03
2018-11-12T11:06:37.474Z,98959.37
2018-11-12T11:09:09.896Z,98962.92
2018-11-12T11:11:40.469Z,98965.22
2018-11-12T11:14:11.038Z,98968.48
2018-11-12T11:16:41.591Z,98961.50
2018-11-12T11:19:12.090Z,98964.28
2018-11-12T11:21:42.626Z,98965.78
2018-11-12T11:24:13.155Z,98962.15
2018-11-12T11:26:43.752Z,98960.00
2018-11-12T11:29:14.305Z,98961.88
2018-11-12T11:31:44.886Z,98955.92
2018-11-12T11:34:15.620Z,98955.63
2018-11-12T11:36:46.169Z,98955.55
2018-11-12T11:39:16.729Z,98956.20
2018-11-12T11:41:47.291Z,98960.75
2018-11-12T11:44:17.883Z,98954.61
2018-11-12T11:46:48.512Z,98951.92
2018-11-12T11:49:19.042Z,98947.19
2018-11-12T11:51:49.558Z,98951.67
2018-11-12T11:54:20.161Z,98946.80
2018-11-12T11:56:50.741Z,98952.29
2018-11-12T11:59:21.325Z,98940.56
2018-11-12T12:01:51.832Z,98944.17
2018-11-12T12:04:22.431Z,98943.74
2018-11-12T12:06:53.048Z,98937.70
2018-11-12T12:09:23.635Z,98930.25
2018-11-12T12:11:54.231Z,98938.44
2018-11-12T12:14:24.930Z,98936.27
2018-11-12T12:16:55.454Z,98931.81
2018-11-12T12:19:26.037Z,98939.81
2018-11-12T12:21:56.598Z,98940.04
2018-11-12T12:24:27.147Z,98943.94
2018-11-12T12:26:57.758Z,98947.28
2018-11-12T12:29:28.248Z,98943.70
2018-11-12T12:31:58.974Z,98947.34
2018-11-12T12:34:29.793Z,98944.91
2018-11-12T12:37:00.426Z,98934.91
2018-11-12T12:39:30.982Z,98948.41
2018-11-12T12:42:01.566Z,98945.72
2018-11-12T12:44:34.053Z,98947.45
2018-11-12T12:47:05.282Z,98950.00
2018-11-12T12:49:36.478Z,98955.25
2018-11-12T12:52:07.674Z,98955.59
2018-11-12T12:54:38.386Z,98958.19
2018-11-12T12:57:09.720Z,98949.84
2018-11-12T12:59:40.474Z,98945.56
2018-11-12T13:02:11.334Z,98948.95
2018-11-12T13:04:41.885Z,98945.88
2018-11-12T13:07:12.501Z,98949.93
2018-11-12T13:09:43.589Z,98958.48
2018-11-12T13:12:14.153Z,98952.56
2018-11-12T13:14:45.022Z,98957.25
2018-11-12T13:17:15.534Z,98960.50
2018-11-12T13:19:46.124Z,98963.97
2018-11-12T13:22:16.982Z,98956.39
2018-11-12T13:24:47.485Z,98957.24
2018-11-12T13:27:18.105Z,98948.25
2018-11-12T13:29:48.735Z,98952.50
2018-11-12T13:32:19.213Z,98958.18
2018-11-12T13:34:49.820Z,98968.26
2018-11-12T13:37:20.263Z,98965.38
2018-11-12T13:39:51.512Z,98969.39
2018-11-12T13:42:27.506Z,98962.27
2018-11-12T13:44:58.147Z,98962.83
2018-11-12T13:47:28.695Z,98960.78
2018-11-12T13:49:59.177Z,98959.05
2018-11-12T13:52:29.771Z,98962.54
2018-11-12T13:55:00.588Z,98958.65
2018-11-12T13:57:31.118Z,98968.44
2018-11-12T14:00:01.683Z,98970.24
2018-11-12T14:02:32.244Z,98969.66
2018-11-12T14:05:02.740Z,98969.67
2018-11-12T14:07:33.352Z,98969.22
2018-11-12T14:10:04.146Z,98969.58
2018-11-12T14:12:34.731Z,98975.92
2018-11-12T14:15:05.479Z,98976.83
2018-11-12T14:17:37.164Z,98979.95
2018-11-12T14:20:12.844Z,98978.66
2018-11-12T14:22:43.790Z,98981.34
2018-11-12T14:25:15.871Z,98988.89
2018-11-12T14:27:47.522Z,98985.45
2018-11-12T14:30:19.541Z,98981.03
2018-11-12T14:32:50.179Z,98980.41
2018-11-12T14:35:22.267Z,98983.70
2018-11-12T14:37:52.976Z,98982.85
2018-11-12T14:40:23.529Z,98979.41
2018-11-12T14:42:54.161Z,98979.95
2018-11-12T14:45:24.779Z,98993.31
2018-11-12T14:47:55.423Z,98990.85
2018-11-12T14:50:25.931Z,98994.66
2018-11-12T14:52:56.690Z,98991.78
2018-11-12T14:55:27.372Z,98996.34
2018-11-12T14:57:57.926Z,98995.94
2018-11-12T15:00:28.568Z,98997.95
2018-11-12T15:02:59.211Z,99006.23
2018-11-12T15:05:29.858Z,99003.12
2018-11-12T15:08:00.500Z,99011.95
2018-11-12T15:10:31.065Z,99010.16
2018-11-12T15:13:01.826Z,99018.23
2018-11-12T15:15:33.529Z,99020.81
2018-11-12T15:18:04.112Z,99018.84
2018-11-12T15:20:34.721Z,99031.59
2018-11-12T15:23:05.339Z,99033.92
2018-11-12T15:25:36.371Z,99039.05
2018-11-12T15:28:07.222Z,99043.26
2018-11-12T15:30:37.914Z,99051.47
2018-11-12T15:33:08.514Z,99050.27
2018-11-12T15:35:39.261Z,99057.52
2018-11-12T15:38:09.819Z,99058.77
2018-11-12T15:40:40.381Z,99063.34
2018-11-12T15:43:11.068Z,99055.16
2018-11-12T15:45:41.637Z,99062.25
2018-11-12T15:48:12.178Z,99058.89
2018-11-12T15:50:43.343Z,99067.39
2018-11-12T15:53:13.964Z,99068.04
2018-11-12T15:55:44.524Z,99062.49
2018-11-12T15:58:15.135Z,99072.53
2018-11-12T16:00:45.746Z,99069.81
2018-11-12T16:03:16.318Z,99068.61
2018-11-12T16:05:47.069Z,99070.50
2018-11-12T16:08:17.626Z,99068.04
2018-11-12T16:10:48.346Z,99070.91
2018-11-12T16:13:18.954Z,99067.22
2018-11-12T16:15:49.654Z,99068.52
2018-11-12T16:18:20.274Z,99073.38
2018-11-12T16:20:50.865Z,99069.08
2018-11-12T16:23:21.416Z,99068.44
2018-11-12T16:25:52.211Z,99069.01
2018-11-12T16:28:22.798Z,99075.16
2018-11-12T16:30:53.478Z,99068.84
2018-11-12T16:33:24.141Z,99074.14
2018-11-12T16:35:54.694Z,99073.74
2018-11-12T16:38:25.367Z,99070.54
2018-11-12T16:40:56.005Z,99077.66
2018-11-12T16:43:26.621Z,99069.77
2018-11-12T16:45:57.640Z,99077.01
2018-11-12T16:48:28.169Z,99072.16
2018-11-12T16:50:58.671Z,99079.36
2018-11-12T16:53:29.386Z,99079.75
2018-11-12T16:56:00.066Z,99074.77
2018-11-12T16:58:30.705Z,99079.63
2018-11-12T17:01:01.285Z,99078.85
2018-11-12T17:03:31.926Z,99081.44
2018-11-12T17:06:02.743Z,99081.32
2018-11-12T17:08:33.362Z,99085.32
2018-11-12T17:11:03.996Z,99081.52
2018-11-12T17:13:34.565Z,99086.89
2018-11-12T17:16:05.105Z,99081.11
2018-11-12T17:18:35.785Z,99084.55
2018-11-12T17:21:06.534Z,99076.27
2018-11-12T17:23:37.138Z,99076.78
2018-11-12T17:26:08.558Z,99084.18
2018-11-12T17:28:39.737Z,99084.43
2018-11-12T17:31:10.318Z,99080.59
2018-11-12T17:33:41.234Z,99082.04
2018-11-12T17:36:11.854Z,99085.52
2018-11-12T17:38:42.474Z,99089.86
2018-11-12T17:41:13.174Z,99091.04
2018-11-12T17:43:43.755Z,99095.00
2018-11-12T17:46:15.204Z,99093.30
2018-11-12T17:48:45.769Z,99092.53
2018-11-12T17:51:16.391Z,99097.77
2018-11-12T17:53:47.052Z,99097.12
2018-11-12T17:56:17.629Z,99104.55
2018-11-12T17:58:48.298Z,99106.03
2018-11-12T18:01:18.976Z,99104.11
2018-11-12T18:03:49.457Z,99109.53
2018-11-12T18:06:20.202Z,99109.53
2018-11-12T18:08:51.134Z,99106.81
2018-11-12T18:11:21.687Z,99119.38
2018-11-12T18:13:52.701Z,99109.80
2018-11-12T18:16:23.642Z,99116.78
2018-11-12T18:18:54.312Z,99118.66
2018-11-12T18:21:25.430Z,99122.59
2018-11-12T18:23:56.281Z,99118.45
2018-11-12T18:26:28.886Z,99115.80
2018-11-12T18:28:59.618Z,99120.00
2018-11-12T18:31:31.114Z,99121.11
2018-11-12T18:34:01.676Z,99125.25
2018-11-12T18:36:32.301Z,99127.58
2018-11-12T18:39:03.164Z,99128.42
2018-11-12T18:41:34.190Z,99125.39
2018-11-12T18:44:05.023Z,99131.20
2018-11-12T18:46:36.312Z,99129.13
2018-11-12T18:49:07.200Z,99129.39
2018-11-12T18:51:37.884Z,99134.45
2018-11-12T18:54:08.637Z,99135.41
2018-11-12T18:56:39.133Z,99143.36
2018-11-12T18:59:09.853Z,99135.78
2018-11-12T19:01:40.673Z,99144.05
2018-11-12T19:04:11.339Z,99136.23
2018-11-12T19:06:42.251Z,99139.84
2018-11-12T19:09:13.141Z,99136.38
2018-11-12T19:11:43.833Z,99138.73
2018-11-12T19:14:14.930Z,99137.00
2018-11-12T19:16:46.029Z,99144.24
2018-11-12T19:19:16.867Z,99144.61
2018-11-12T19:21:47.648Z,99140.28
2018-11-12T19:24:18.405Z,99136.55
2018-11-12T19:26:49.306Z,99141.58
2018-11-12T19:29:19.956Z,99143.09
2018-11-12T19:31:50.759Z,99141.33
2018-11-12T19:34:21.552Z,99140.73
2018-11-12T19:36:52.215Z,99140.44
2018-11-12T19:39:23.030Z,99141.33
2018-11-12T19:41:53.730Z,99139.95
2018-11-12T19:44:24.567Z,99139.84
2018-11-12T19:46:55.351Z,99149.07
2018-11-12T19:49:26.062Z,99147.16
2018-11-12T19:51:56.792Z,99145.90
2018-11-12T19:54:28.592Z,99142.16
2018-11-12T19:56:59.435Z,99147.78
2018-11-12T19:59:30.070Z,99139.33
2018-11-12T20:02:00.959Z,99143.47
2018-11-12T20:04:31.855Z,99141.20
2018-11-12T20:07:02.730Z,99145.59
2018-11-12T20:09:33.403Z,99144.01
2018-11-12T20:12:04.047Z,99144.56
2018-11-12T20:14:40.330Z,99138.62
2018-11-12T20:17:11.138Z,99138.80
2018-11-12T20:19:41.849Z,99139.50
2018-11-12T20:22:13.217Z,99142.34
2018-11-12T20:24:43.751Z,99147.63
2018-11-12T20:27:14.530Z,99147.17
2018-11-12T20:29:45.109Z,99141.74
2018-11-12T20:32:15.619Z,99145.22
2018-11-12T20:34:46.338Z,99140.56
2018-11-12T20:37:16.978Z,99140.05
2018-11-12T20:39:47.607Z,99144.51
2018-11-12T20:42:18.191Z,99140.56
2018-11-12T20:44:48.660Z,99131.98
2018-11-12T20:47:19.303Z,99129.17
2018-11-12T20:49:49.835Z,99132.96
2018-11-12T20:52:20.428Z,99134.22
2018-11-12T20:54:51.007Z,99141.77
2018-11-12T20:57:21.735Z,99148.13
2018-11-12T20:59:52.372Z,99149.56
2018-11-12T21:02:22.911Z,99146.57
2018-11-12T21:04:53.845Z,99144.05
2018-11-12T21:07:24.790Z,99147.93
2018-11-12T21:09:55.430Z,99152.83
2018-11-12T21:12:25.990Z,99154.13
2018-11-12T21:14:56.666Z,99151.47
2018-11-12T21:17:27.255Z,99147.70
2018-11-12T21:19:57.874Z,99147.73
2018-11-12T21:22:28.598Z,99145.73
2018-11-12T21:24:59.730Z,99145.32
2018-11-12T21:27:31.295Z,99153.55
2018-11-12T21:30:01.857Z,99153.79
2018-11-12T21:32:32.555Z,99119.83
2018-11-12T21:35:03.019Z,99155.59
2018-11-12T21:37:33.725Z,99155.59
2018-11-12T21:40:04.462Z,99149.57
2018-11-12T21:42:35.110Z,99147.87
2018-11-12T21:45:07.352Z,99150.02
2018-11-12T21:47:38.839Z,99150.25
2018-11-12T21:50:11.394Z,99146.24
2018-11-12T21:52:41.882Z,99151.30
2018-11-12T21:55:13.112Z,99158.34
2018-11-12T21:57:44.650Z,99156.20
2018-11-12T22:00:22.260Z,99157.08
2018-11-12T22:02:54.515Z,99151.55
2018-11-12T22:05:25.693Z,99160.45
2018-11-12T22:07:56.433Z,99150.25
2018-11-12T22:10:27.238Z,99152.42
2018-11-12T22:12:58.462Z,99156.30
2018-11-12T22:15:28.980Z,99155.42
2018-11-12T22:17:59.510Z,99152.16
2018-11-12T22:20:30.214Z,99156.13
2018-11-12T22:23:00.827Z,99154.47
2018-11-12T22:25:31.294Z,99148.45
2018-11-12T22:28:01.972Z,99148.83
2018-11-12T22:30:32.500Z,99149.74
2018-11-12T22:33:02.975Z,99151.38
2018-11-12T22:35:33.399Z,99144.03
2018-11-12T22:38:03.943Z,99146.81
2018-11-12T22:40:34.441Z,99146.64
2018-11-12T22:43:04.983Z,99143.11
2018-11-12T22:45:35.533Z,99145.63
2018-11-12T22:48:09.520Z,99150.48
2018-11-12T22:50:40.000Z,99145.59
2018-11-12T22:53:10.556Z,99142.84
2018-11-12T22:55:41.023Z,99141.95
2018-11-12T22:58:11.569Z,99141.17
2018-11-12T23:00:44.318Z,99144.64
2018-11-12T23:03:14.916Z,99144.73
2018-11-12T23:05:45.439Z,99148.81
2018-11-12T23:08:16.112Z,99147.95
2018-11-12T23:10:46.678Z,99151.55
2018-11-12T23:13:17.160Z,99147.41
2018-11-12T23:15:47.707Z,99148.80
2018-11-12T23:18:18.180Z,99146.63
2018-11-12T23:20:48.738Z,99149.30
2018-11-12T23:23:19.251Z,99147.66
2018-11-12T23:25:49.831Z,99149.97
2018-11-12T23:28:20.347Z,99154.53
2018-11-12T23:30:50.915Z,99162.78
2018-11-12T23:33:21.402Z,99161.08
2018-11-12T23:35:52.034Z,99159.41
2018-11-12T23:38:22.601Z,99156.83
2018-11-12T23:40:53.152Z,99161.47
2018-11-12T23:43:23.662Z,99161.02
2018-11-12T23:45:54.150Z,99155.01
2018-11-12T23:48:24.913Z,99160.36
2018-11-12T23:50:55.581Z,99163.09
2018-11-12T23:53:26.140Z,99157.31
2018-11-12T23:55:56.720Z,99161.97
2018-11-12T23:58:27.253Z,99159.48
